Weather at Village Oaks Airport

Public forecast

Using degrees Fahrenheit for public forecast. Weather courtesy of forecast.io.

Closest aviation weather report (METAR) to Village Oaks Airport

Closest report is Davenport Municipal Airport, 12.1 nm (22.3 km) NE.

2024/03/01 17:52 (retrieved 59 minutes ago)

KDVN 011752Z AUTO 17010KT 10SM OVC046 07/M03 A3012 RMK AO2 SLP200 T00671028 10067 21022 58004

Closest aviation forecast (TAF) to Village Oaks Airport

Closest forecast is Quad City International Airport, 12.4 nm (22.9 km) E.

2024/03/01 18:30 (retrieved 21 minutes ago)

TAF KMLI 011727Z 0118/0218 18010KT P6SM OVC050 FM020800 18007KT P6SM FEW230